sensor_id;sensor_type;location;lat;lon;timestamp;temperature;humidity
49829;DHT22;35723;51.194;5.112;2023-08-01T00:00:31;19.70;99.90
49829;DHT22;35723;51.194;5.112;2023-08-01T00:02:57;19.70;99.90
49829;DHT22;35723;51.194;5.112;2023-08-01T00:05:23;19.80;99.90
49829;DHT22;35723;51.194;5.112;2023-08-01T00:07:49;19.70;99.90
49829;DHT22;35723;51.194;5.112;2023-08-01T00:10:14;19.70;99.90
49829;DHT22;35723;51.194;5.112;2023-08-01T00:12:42;19.70;99.90
49829;DHT22;35723;51.194;5.112;2023-08-01T00:15:08;19.60;99.90
49829;DHT22;35723;51.194;5.112;2023-08-01T00:17:34;19.60;99.90
49829;DHT22;35723;51.194;5.112;2023-08-01T00:20:01;19.70;99.90
49829;DHT22;35723;51.194;5.112;2023-08-01T00:22:27;19.70;99.90
49829;DHT22;35723;51.194;5.112;2023-08-01T00:24:53;19.70;99.90
49829;DHT22;35723;51.194;5.112;2023-08-01T00:27:18;19.70;99.90
49829;DHT22;35723;51.194;5.112;2023-08-01T00:29:45;19.70;99.90
49829;DHT22;35723;51.194;5.112;2023-08-01T00:32:10;19.60;99.90
49829;DHT22;35723;51.194;5.112;2023-08-01T00:34:36;19.60;99.90
49829;DHT22;35723;51.194;5.112;2023-08-01T00:37:02;19.70;99.90
49829;DHT22;35723;51.194;5.112;2023-08-01T00:39:27;19.70;99.90
49829;DHT22;35723;51.194;5.112;2023-08-01T00:41:53;19.60;99.90
49829;DHT22;35723;51.194;5.112;2023-08-01T00:44:19;19.60;99.90
49829;DHT22;35723;51.194;5.112;2023-08-01T00:46:45;19.50;99.90
49829;DHT22;35723;51.194;5.112;2023-08-01T00:49:12;19.60;99.90
49829;DHT22;35723;51.194;5.112;2023-08-01T00:51:38;19.60;99.90
49829;DHT22;35723;51.194;5.112;2023-08-01T00:54:03;19.60;99.90
49829;DHT22;35723;51.194;5.112;2023-08-01T00:56:29;19.50;99.90
49829;DHT22;35723;51.194;5.112;2023-08-01T00:58:55;19.50;99.90
49829;DHT22;35723;51.194;5.112;2023-08-01T01:01:20;19.50;99.90
49829;DHT22;35723;51.194;5.112;2023-08-01T01:03:46;19.50;99.90
49829;DHT22;35723;51.194;5.112;2023-08-01T01:06:16;19.40;99.90
49829;DHT22;35723;51.194;5.112;2023-08-01T01:08:48;19.40;99.90
49829;DHT22;35723;51.194;5.112;2023-08-01T01:11:13;19.40;99.90
49829;DHT22;35723;51.194;5.112;2023-08-01T01:13:39;19.40;99.90
49829;DHT22;35723;51.194;5.112;2023-08-01T01:16:05;19.40;99.90
49829;DHT22;35723;51.194;5.112;2023-08-01T01:18:30;19.40;99.90
49829;DHT22;35723;51.194;5.112;2023-08-01T01:20:56;19.30;99.90
49829;DHT22;35723;51.194;5.112;2023-08-01T01:23:22;19.30;99.90
49829;DHT22;35723;51.194;5.112;2023-08-01T01:25:51;19.40;99.90
49829;DHT22;35723;51.194;5.112;2023-08-01T01:28:17;19.30;99.90
49829;DHT22;35723;51.194;5.112;2023-08-01T01:30:44;19.30;99.90
49829;DHT22;35723;51.194;5.112;2023-08-01T01:33:11;19.20;99.90
49829;DHT22;35723;51.194;5.112;2023-08-01T01:35:37;19.20;99.90
49829;DHT22;35723;51.194;5.112;2023-08-01T01:38:03;19.10;99.90
49829;DHT22;35723;51.194;5.112;2023-08-01T01:40:33;19.10;99.90
49829;DHT22;35723;51.194;5.112;2023-08-01T01:42:59;19.10;99.90
49829;DHT22;35723;51.194;5.112;2023-08-01T01:45:25;19.10;99.90
49829;DHT22;35723;51.194;5.112;2023-08-01T01:47:51;19.20;99.90
49829;DHT22;35723;51.194;5.112;2023-08-01T01:50:17;19.20;99.90
49829;DHT22;35723;51.194;5.112;2023-08-01T01:52:44;19.20;99.90
49829;DHT22;35723;51.194;5.112;2023-08-01T01:55:09;19.00;99.90
49829;DHT22;35723;51.194;5.112;2023-08-01T01:57:35;19.10;99.90
49829;DHT22;35723;51.194;5.112;2023-08-01T02:00:06;19.10;99.90
49829;DHT22;35723;51.194;5.112;2023-08-01T02:02:35;19.00;99.90
49829;DHT22;35723;51.194;5.112;2023-08-01T02:05:01;19.00;99.90
49829;DHT22;35723;51.194;5.112;2023-08-01T02:07:29;19.10;99.90
49829;DHT22;35723;51.194;5.112;2023-08-01T02:09:55;19.00;99.90
49829;DHT22;35723;51.194;5.112;2023-08-01T02:12:20;19.10;99.90
49829;DHT22;35723;51.194;5.112;2023-08-01T02:14:46;19.00;99.90
49829;DHT22;35723;51.194;5.112;2023-08-01T02:17:12;19.00;99.90
49829;DHT22;35723;51.194;5.112;2023-08-01T02:19:38;19.00;99.90
49829;DHT22;35723;51.194;5.112;2023-08-01T02:22:03;18.90;99.90
49829;DHT22;35723;51.194;5.112;2023-08-01T02:24:29;18.90;99.90
49829;DHT22;35723;51.194;5.112;2023-08-01T02:26:55;18.80;99.90
49829;DHT22;35723;51.194;5.112;2023-08-01T02:29:20;18.90;99.90
49829;DHT22;35723;51.194;5.112;2023-08-01T02:31:46;18.80;99.90
49829;DHT22;35723;51.194;5.112;2023-08-01T02:34:12;18.90;99.90
49829;DHT22;35723;51.194;5.112;2023-08-01T02:36:37;18.80;99.90
49829;DHT22;35723;51.194;5.112;2023-08-01T02:39:08;18.80;99.90
49829;DHT22;35723;51.194;5.112;2023-08-01T02:41:33;18.80;99.90
49829;DHT22;35723;51.194;5.112;2023-08-01T02:43:59;18.80;99.90
49829;DHT22;35723;51.194;5.112;2023-08-01T02:46:25;18.90;99.90
49829;DHT22;35723;51.194;5.112;2023-08-01T02:48:53;18.90;99.90
49829;DHT22;35723;51.194;5.112;2023-08-01T02:51:19;18.90;99.90
49829;DHT22;35723;51.194;5.112;2023-08-01T02:53:45;18.90;99.90
49829;DHT22;35723;51.194;5.112;2023-08-01T02:56:10;18.90;99.90
49829;DHT22;35723;51.194;5.112;2023-08-01T02:58:36;18.80;99.90
49829;DHT22;35723;51.194;5.112;2023-08-01T03:01:06;18.90;99.90
49829;DHT22;35723;51.194;5.112;2023-08-01T03:03:32;18.80;99.90
49829;DHT22;35723;51.194;5.112;2023-08-01T03:05:59;18.80;99.90
49829;DHT22;35723;51.194;5.112;2023-08-01T03:08:25;18.90;99.90
49829;DHT22;35723;51.194;5.112;2023-08-01T03:10:50;18.80;99.90
49829;DHT22;35723;51.194;5.112;2023-08-01T03:13:16;18.80;99.90
49829;DHT22;35723;51.194;5.112;2023-08-01T03:15:42;18.80;99.90
49829;DHT22;35723;51.194;5.112;2023-08-01T03:18:07;18.70;99.90
49829;DHT22;35723;51.194;5.112;2023-08-01T03:20:33;18.70;99.90
49829;DHT22;35723;51.194;5.112;2023-08-01T03:22:59;18.70;99.90
49829;DHT22;35723;51.194;5.112;2023-08-01T03:25:24;18.70;99.90
49829;DHT22;35723;51.194;5.112;2023-08-01T03:27:50;18.70;99.90
49829;DHT22;35723;51.194;5.112;2023-08-01T03:30:16;18.70;99.90
49829;DHT22;35723;51.194;5.112;2023-08-01T03:32:41;18.70;99.90
49829;DHT22;35723;51.194;5.112;2023-08-01T03:35:07;18.70;99.90
49829;DHT22;35723;51.194;5.112;2023-08-01T03:37:33;18.80;99.90
49829;DHT22;35723;51.194;5.112;2023-08-01T03:39:58;18.70;99.90
49829;DHT22;35723;51.194;5.112;2023-08-01T03:42:24;18.70;99.90
49829;DHT22;35723;51.194;5.112;2023-08-01T03:44:49;18.70;99.90
49829;DHT22;35723;51.194;5.112;2023-08-01T03:47:15;18.70;99.90
49829;DHT22;35723;51.194;5.112;2023-08-01T03:49:41;18.60;99.90
49829;DHT22;35723;51.194;5.112;2023-08-01T03:52:06;18.60;99.90
49829;DHT22;35723;51.194;5.112;2023-08-01T03:54:32;18.60;99.90
49829;DHT22;35723;51.194;5.112;2023-08-01T03:56:58;18.70;99.90
49829;DHT22;35723;51.194;5.112;2023-08-01T03:59:23;18.80;99.90
49829;DHT22;35723;51.194;5.112;2023-08-01T04:01:49;18.70;99.90
49829;DHT22;35723;51.194;5.112;2023-08-01T04:04:16;18.70;99.90
49829;DHT22;35723;51.194;5.112;2023-08-01T04:06:42;18.70;99.90
49829;DHT22;35723;51.194;5.112;2023-08-01T04:09:07;18.60;99.90
49829;DHT22;35723;51.194;5.112;2023-08-01T04:11:33;18.70;99.90
49829;DHT22;35723;51.194;5.112;2023-08-01T04:14:00;18.70;99.90
49829;DHT22;35723;51.194;5.112;2023-08-01T04:16:26;18.60;99.90
49829;DHT22;35723;51.194;5.112;2023-08-01T04:18:51;18.60;99.90
49829;DHT22;35723;51.194;5.112;2023-08-01T04:21:18;18.70;99.90
49829;DHT22;35723;51.194;5.112;2023-08-01T04:23:44;18.60;99.90
49829;DHT22;35723;51.194;5.112;2023-08-01T04:26:10;18.60;99.90
49829;DHT22;35723;51.194;5.112;2023-08-01T04:28:35;18.70;99.90
49829;DHT22;35723;51.194;5.112;2023-08-01T04:31:01;18.60;99.90
49829;DHT22;35723;51.194;5.112;2023-08-01T04:33:27;18.60;99.90
49829;DHT22;35723;51.194;5.112;2023-08-01T04:35:53;18.60;99.90
49829;DHT22;35723;51.194;5.112;2023-08-01T04:38:19;18.70;99.90
49829;DHT22;35723;51.194;5.112;2023-08-01T04:40:44;18.70;99.90
49829;DHT22;35723;51.194;5.112;2023-08-01T04:43:11;18.70;99.90
49829;DHT22;35723;51.194;5.112;2023-08-01T04:45:37;18.80;99.90
49829;DHT22;35723;51.194;5.112;2023-08-01T04:48:02;18.70;99.90
49829;DHT22;35723;51.194;5.112;2023-08-01T04:50:28;18.70;99.90
49829;DHT22;35723;51.194;5.112;2023-08-01T04:52:54;18.60;99.90
49829;DHT22;35723;51.194;5.112;2023-08-01T04:55:20;18.70;99.90
49829;DHT22;35723;51.194;5.112;2023-08-01T04:57:45;18.70;99.90
49829;DHT22;35723;51.194;5.112;2023-08-01T05:00:11;18.70;99.90
49829;DHT22;35723;51.194;5.112;2023-08-01T05:02:37;18.70;99.90
49829;DHT22;35723;51.194;5.112;2023-08-01T05:05:03;18.70;99.90
49829;DHT22;35723;51.194;5.112;2023-08-01T05:07:30;18.60;99.90
49829;DHT22;35723;51.194;5.112;2023-08-01T05:09:55;18.60;99.90
49829;DHT22;35723;51.194;5.112;2023-08-01T05:12:21;18.80;99.90
49829;DHT22;35723;51.194;5.112;2023-08-01T05:14:47;18.70;99.90
49829;DHT22;35723;51.194;5.112;2023-08-01T05:17:12;18.70;99.90
49829;DHT22;35723;51.194;5.112;2023-08-01T05:19:38;18.70;99.90
49829;DHT22;35723;51.194;5.112;2023-08-01T05:22:04;18.60;99.90
49829;DHT22;35723;51.194;5.112;2023-08-01T05:24:30;18.60;99.90
49829;DHT22;35723;51.194;5.112;2023-08-01T05:26:56;18.60;99.90
49829;DHT22;35723;51.194;5.112;2023-08-01T05:29:21;18.70;99.90
49829;DHT22;35723;51.194;5.112;2023-08-01T05:31:47;18.70;99.90
49829;DHT22;35723;51.194;5.112;2023-08-01T05:34:12;18.70;99.90
49829;DHT22;35723;51.194;5.112;2023-08-01T05:36:38;18.60;99.90
49829;DHT22;35723;51.194;5.112;2023-08-01T05:39:04;18.70;99.90
49829;DHT22;35723;51.194;5.112;2023-08-01T05:41:29;18.70;99.90
49829;DHT22;35723;51.194;5.112;2023-08-01T05:43:56;18.60;99.90
49829;DHT22;35723;51.194;5.112;2023-08-01T05:46:21;18.60;99.90
49829;DHT22;35723;51.194;5.112;2023-08-01T05:48:47;18.60;99.90
49829;DHT22;35723;51.194;5.112;2023-08-01T05:51:13;18.60;99.90
49829;DHT22;35723;51.194;5.112;2023-08-01T05:53:38;18.60;99.90
49829;DHT22;35723;51.194;5.112;2023-08-01T05:56:04;18.70;99.90
49829;DHT22;35723;51.194;5.112;2023-08-01T05:58:30;18.70;99.90
49829;DHT22;35723;51.194;5.112;2023-08-01T06:00:56;18.70;99.90
49829;DHT22;35723;51.194;5.112;2023-08-01T06:03:22;18.80;99.90
49829;DHT22;35723;51.194;5.112;2023-08-01T06:05:48;18.70;99.90
49829;DHT22;35723;51.194;5.112;2023-08-01T06:08:14;18.80;99.90
49829;DHT22;35723;51.194;5.112;2023-08-01T06:10:41;18.80;99.90
49829;DHT22;35723;51.194;5.112;2023-08-01T06:13:07;18.80;99.90
49829;DHT22;35723;51.194;5.112;2023-08-01T06:15:33;18.90;99.90
49829;DHT22;35723;51.194;5.112;2023-08-01T06:17:58;18.90;99.90
49829;DHT22;35723;51.194;5.112;2023-08-01T06:20:24;18.90;99.90
49829;DHT22;35723;51.194;5.112;2023-08-01T06:22:50;19.00;99.90
49829;DHT22;35723;51.194;5.112;2023-08-01T06:25:15;18.90;99.90
49829;DHT22;35723;51.194;5.112;2023-08-01T06:27:41;19.00;99.90
49829;DHT22;35723;51.194;5.112;2023-08-01T06:30:07;19.00;99.90
49829;DHT22;35723;51.194;5.112;2023-08-01T06:32:33;18.90;99.90
49829;DHT22;35723;51.194;5.112;2023-08-01T06:34:58;18.90;99.90
49829;DHT22;35723;51.194;5.112;2023-08-01T06:37:24;18.80;99.90
49829;DHT22;35723;51.194;5.112;2023-08-01T06:39:50;18.90;99.90
49829;DHT22;35723;51.194;5.112;2023-08-01T06:42:15;18.90;99.90
49829;DHT22;35723;51.194;5.112;2023-08-01T06:44:41;18.90;99.90
49829;DHT22;35723;51.194;5.112;2023-08-01T06:47:07;18.80;99.90
49829;DHT22;35723;51.194;5.112;2023-08-01T06:49:33;18.80;99.90
49829;DHT22;35723;51.194;5.112;2023-08-01T06:51:59;18.80;99.90
49829;DHT22;35723;51.194;5.112;2023-08-01T06:54:24;18.80;99.90
49829;DHT22;35723;51.194;5.112;2023-08-01T06:56:50;18.90;99.90
49829;DHT22;35723;51.194;5.112;2023-08-01T06:59:16;19.00;99.90
49829;DHT22;35723;51.194;5.112;2023-08-01T07:01:42;19.00;99.90
49829;DHT22;35723;51.194;5.112;2023-08-01T07:04:09;19.00;99.90
49829;DHT22;35723;51.194;5.112;2023-08-01T07:06:35;18.90;99.90
49829;DHT22;35723;51.194;5.112;2023-08-01T07:09:00;19.00;99.90
49829;DHT22;35723;51.194;5.112;2023-08-01T07:11:26;19.00;99.90
49829;DHT22;35723;51.194;5.112;2023-08-01T07:13:52;19.10;99.90
49829;DHT22;35723;51.194;5.112;2023-08-01T07:16:17;19.20;99.90
49829;DHT22;35723;51.194;5.112;2023-08-01T07:18:43;19.10;99.90
49829;DHT22;35723;51.194;5.112;2023-08-01T07:21:09;19.10;99.90
49829;DHT22;35723;51.194;5.112;2023-08-01T07:23:35;19.20;99.90
49829;DHT22;35723;51.194;5.112;2023-08-01T07:26:03;19.20;99.90
49829;DHT22;35723;51.194;5.112;2023-08-01T07:28:29;19.30;99.90
49829;DHT22;35723;51.194;5.112;2023-08-01T07:31:02;19.30;99.90
49829;DHT22;35723;51.194;5.112;2023-08-01T07:33:29;19.40;99.90
49829;DHT22;35723;51.194;5.112;2023-08-01T07:35:55;19.30;99.90
49829;DHT22;35723;51.194;5.112;2023-08-01T07:38:21;19.40;99.90
49829;DHT22;35723;51.194;5.112;2023-08-01T07:40:46;19.50;99.90
49829;DHT22;35723;51.194;5.112;2023-08-01T07:43:12;19.50;99.90
49829;DHT22;35723;51.194;5.112;2023-08-01T07:45:38;19.60;99.90
49829;DHT22;35723;51.194;5.112;2023-08-01T07:48:04;19.70;99.90
49829;DHT22;35723;51.194;5.112;2023-08-01T07:50:30;19.80;99.90
49829;DHT22;35723;51.194;5.112;2023-08-01T07:52:56;19.90;99.90
49829;DHT22;35723;51.194;5.112;2023-08-01T07:55:22;19.80;99.90
49829;DHT22;35723;51.194;5.112;2023-08-01T07:57:48;19.90;99.90
49829;DHT22;35723;51.194;5.112;2023-08-01T08:00:14;20.00;99.90
49829;DHT22;35723;51.194;5.112;2023-08-01T08:02:44;20.00;99.90
49829;DHT22;35723;51.194;5.112;2023-08-01T08:05:10;20.10;99.90
49829;DHT22;35723;51.194;5.112;2023-08-01T08:07:39;20.00;99.90
49829;DHT22;35723;51.194;5.112;2023-08-01T08:10:05;20.00;99.90
49829;DHT22;35723;51.194;5.112;2023-08-01T08:12:32;20.00;99.90
49829;DHT22;35723;51.194;5.112;2023-08-01T08:14:57;20.20;99.90
49829;DHT22;35723;51.194;5.112;2023-08-01T08:17:23;20.20;99.90
49829;DHT22;35723;51.194;5.112;2023-08-01T08:19:49;20.10;99.90
49829;DHT22;35723;51.194;5.112;2023-08-01T08:22:14;20.20;99.90
49829;DHT22;35723;51.194;5.112;2023-08-01T08:24:40;20.20;99.90
49829;DHT22;35723;51.194;5.112;2023-08-01T08:27:06;20.10;99.90
49829;DHT22;35723;51.194;5.112;2023-08-01T08:29:32;20.10;99.90
49829;DHT22;35723;51.194;5.112;2023-08-01T08:31:58;20.20;99.90
49829;DHT22;35723;51.194;5.112;2023-08-01T08:34:24;20.30;99.90
49829;DHT22;35723;51.194;5.112;2023-08-01T08:36:50;20.20;99.90
49829;DHT22;35723;51.194;5.112;2023-08-01T08:39:19;20.30;99.90
49829;DHT22;35723;51.194;5.112;2023-08-01T08:41:52;20.30;99.90
49829;DHT22;35723;51.194;5.112;2023-08-01T08:44:19;20.40;99.90
49829;DHT22;35723;51.194;5.112;2023-08-01T08:46:51;20.40;99.90
49829;DHT22;35723;51.194;5.112;2023-08-01T08:49:18;20.40;99.90
49829;DHT22;35723;51.194;5.112;2023-08-01T08:51:46;20.50;99.90
49829;DHT22;35723;51.194;5.112;2023-08-01T08:54:13;20.50;99.90
49829;DHT22;35723;51.194;5.112;2023-08-01T08:56:40;20.50;99.90
49829;DHT22;35723;51.194;5.112;2023-08-01T08:59:07;20.40;99.90
49829;DHT22;35723;51.194;5.112;2023-08-01T09:01:36;20.50;99.90
49829;DHT22;35723;51.194;5.112;2023-08-01T09:04:02;20.60;99.90
49829;DHT22;35723;51.194;5.112;2023-08-01T09:06:30;20.60;99.90
49829;DHT22;35723;51.194;5.112;2023-08-01T09:09:13;20.70;99.90
49829;DHT22;35723;51.194;5.112;2023-08-01T09:11:48;20.90;99.90
49829;DHT22;35723;51.194;5.112;2023-08-01T09:14:14;21.00;99.90
49829;DHT22;35723;51.194;5.112;2023-08-01T09:16:41;21.00;99.90
49829;DHT22;35723;51.194;5.112;2023-08-01T09:19:07;20.90;99.90
49829;DHT22;35723;51.194;5.112;2023-08-01T09:21:34;21.00;99.90
49829;DHT22;35723;51.194;5.112;2023-08-01T09:24:15;21.10;99.90
49829;DHT22;35723;51.194;5.112;2023-08-01T09:26:42;21.10;99.90
49829;DHT22;35723;51.194;5.112;2023-08-01T09:29:08;21.10;99.90
49829;DHT22;35723;51.194;5.112;2023-08-01T09:31:36;21.10;99.90
49829;DHT22;35723;51.194;5.112;2023-08-01T09:34:05;21.10;99.90
49829;DHT22;35723;51.194;5.112;2023-08-01T09:36:34;21.10;99.90
49829;DHT22;35723;51.194;5.112;2023-08-01T09:39:01;21.10;99.90
49829;DHT22;35723;51.194;5.112;2023-08-01T09:41:28;21.10;99.90
49829;DHT22;35723;51.194;5.112;2023-08-01T09:43:55;21.10;99.90
49829;DHT22;35723;51.194;5.112;2023-08-01T09:46:21;21.00;99.90
49829;DHT22;35723;51.194;5.112;2023-08-01T09:48:46;20.90;99.90
49829;DHT22;35723;51.194;5.112;2023-08-01T09:51:14;20.90;99.90
49829;DHT22;35723;51.194;5.112;2023-08-01T09:54:06;20.90;99.90
49829;DHT22;35723;51.194;5.112;2023-08-01T09:56:31;20.90;99.90
49829;DHT22;35723;51.194;5.112;2023-08-01T09:58:59;21.00;99.90
49829;DHT22;35723;51.194;5.112;2023-08-01T10:01:25;21.10;99.90
49829;DHT22;35723;51.194;5.112;2023-08-01T10:03:53;21.20;99.90
49829;DHT22;35723;51.194;5.112;2023-08-01T10:06:22;21.30;99.90
49829;DHT22;35723;51.194;5.112;2023-08-01T10:08:49;21.40;99.90
49829;DHT22;35723;51.194;5.112;2023-08-01T10:11:18;21.40;99.90
49829;DHT22;35723;51.194;5.112;2023-08-01T10:13:44;21.40;99.90
49829;DHT22;35723;51.194;5.112;2023-08-01T10:16:11;21.40;99.90
49829;DHT22;35723;51.194;5.112;2023-08-01T10:18:38;21.40;99.90
49829;DHT22;35723;51.194;5.112;2023-08-01T10:21:11;21.40;99.90
49829;DHT22;35723;51.194;5.112;2023-08-01T10:23:38;21.30;99.90
49829;DHT22;35723;51.194;5.112;2023-08-01T10:26:05;21.30;99.90
49829;DHT22;35723;51.194;5.112;2023-08-01T10:28:40;21.30;99.90
49829;DHT22;35723;51.194;5.112;2023-08-01T10:31:16;21.30;99.90
49829;DHT22;35723;51.194;5.112;2023-08-01T10:33:45;21.30;99.90
49829;DHT22;35723;51.194;5.112;2023-08-01T10:36:15;21.30;99.90
49829;DHT22;35723;51.194;5.112;2023-08-01T10:38:52;21.30;99.90
49829;DHT22;35723;51.194;5.112;2023-08-01T10:41:25;21.40;99.90
49829;DHT22;35723;51.194;5.112;2023-08-01T10:43:51;21.40;99.90
49829;DHT22;35723;51.194;5.112;2023-08-01T10:46:17;21.50;99.90
49829;DHT22;35723;51.194;5.112;2023-08-01T10:48:53;21.60;99.90
49829;DHT22;35723;51.194;5.112;2023-08-01T10:51:19;21.60;99.90
49829;DHT22;35723;51.194;5.112;2023-08-01T10:53:45;21.70;99.90
49829;DHT22;35723;51.194;5.112;2023-08-01T10:56:18;21.70;99.90
49829;DHT22;35723;51.194;5.112;2023-08-01T10:58:45;21.80;99.90
49829;DHT22;35723;51.194;5.112;2023-08-01T11:01:11;21.80;99.90
49829;DHT22;35723;51.194;5.112;2023-08-01T11:03:38;21.90;99.90
49829;DHT22;35723;51.194;5.112;2023-08-01T11:06:04;21.90;99.90
49829;DHT22;35723;51.194;5.112;2023-08-01T11:08:38;22.00;99.90
49829;DHT22;35723;51.194;5.112;2023-08-01T11:11:14;22.00;99.90
49829;DHT22;35723;51.194;5.112;2023-08-01T11:13:40;22.10;99.90
49829;DHT22;35723;51.194;5.112;2023-08-01T11:16:06;22.10;99.90
49829;DHT22;35723;51.194;5.112;2023-08-01T11:18:44;22.10;99.90
49829;DHT22;35723;51.194;5.112;2023-08-01T11:21:10;22.20;99.90
49829;DHT22;35723;51.194;5.112;2023-08-01T11:23:36;22.10;99.90
49829;DHT22;35723;51.194;5.112;2023-08-01T11:26:09;22.20;99.90
49829;DHT22;35723;51.194;5.112;2023-08-01T11:28:36;22.20;99.90
49829;DHT22;35723;51.194;5.112;2023-08-01T11:31:10;22.20;99.90
49829;DHT22;35723;51.194;5.112;2023-08-01T11:33:36;22.20;99.90
49829;DHT22;35723;51.194;5.112;2023-08-01T11:36:03;22.20;99.90
49829;DHT22;35723;51.194;5.112;2023-08-01T11:38:32;22.30;99.90
49829;DHT22;35723;51.194;5.112;2023-08-01T11:40:59;22.30;99.90
49829;DHT22;35723;51.194;5.112;2023-08-01T11:43:25;22.30;99.90
49829;DHT22;35723;51.194;5.112;2023-08-01T11:45:55;22.40;99.90
49829;DHT22;35723;51.194;5.112;2023-08-01T11:48:22;22.40;99.90
49829;DHT22;35723;51.194;5.112;2023-08-01T11:50:49;22.40;99.90
49829;DHT22;35723;51.194;5.112;2023-08-01T11:53:19;22.40;99.90
49829;DHT22;35723;51.194;5.112;2023-08-01T11:55:45;22.40;99.90
49829;DHT22;35723;51.194;5.112;2023-08-01T11:58:11;22.50;99.90
49829;DHT22;35723;51.194;5.112;2023-08-01T12:00:36;22.50;99.90
49829;DHT22;35723;51.194;5.112;2023-08-01T12:03:09;22.60;99.90
49829;DHT22;35723;51.194;5.112;2023-08-01T12:05:40;22.60;99.90
49829;DHT22;35723;51.194;5.112;2023-08-01T12:08:14;22.70;99.90
49829;DHT22;35723;51.194;5.112;2023-08-01T12:10:42;22.80;99.90
49829;DHT22;35723;51.194;5.112;2023-08-01T12:13:22;22.70;99.90
49829;DHT22;35723;51.194;5.112;2023-08-01T12:15:55;22.80;99.90
49829;DHT22;35723;51.194;5.112;2023-08-01T12:18:25;22.70;99.90
49829;DHT22;35723;51.194;5.112;2023-08-01T12:20:51;22.60;99.90
49829;DHT22;35723;51.194;5.112;2023-08-01T12:23:17;22.60;99.90
49829;DHT22;35723;51.194;5.112;2023-08-01T12:25:43;22.50;99.90
49829;DHT22;35723;51.194;5.112;2023-08-01T12:28:09;22.50;99.90
49829;DHT22;35723;51.194;5.112;2023-08-01T12:30:35;22.60;99.90
49829;DHT22;35723;51.194;5.112;2023-08-01T12:33:01;22.60;99.90
49829;DHT22;35723;51.194;5.112;2023-08-01T12:35:26;22.60;99.90
49829;DHT22;35723;51.194;5.112;2023-08-01T12:37:55;22.60;99.90
49829;DHT22;35723;51.194;5.112;2023-08-01T12:40:20;22.60;99.90
49829;DHT22;35723;51.194;5.112;2023-08-01T12:42:47;22.60;99.90
49829;DHT22;35723;51.194;5.112;2023-08-01T12:45:12;22.70;99.90
49829;DHT22;35723;51.194;5.112;2023-08-01T12:47:39;22.70;99.90
49829;DHT22;35723;51.194;5.112;2023-08-01T12:50:05;22.60;99.90
49829;DHT22;35723;51.194;5.112;2023-08-01T12:52:30;22.60;99.90
49829;DHT22;35723;51.194;5.112;2023-08-01T12:54:56;22.60;99.90
49829;DHT22;35723;51.194;5.112;2023-08-01T12:57:22;22.60;99.90
49829;DHT22;35723;51.194;5.112;2023-08-01T12:59:48;22.70;99.90
49829;DHT22;35723;51.194;5.112;2023-08-01T13:02:14;22.90;99.90
49829;DHT22;35723;51.194;5.112;2023-08-01T13:04:40;22.90;99.90
49829;DHT22;35723;51.194;5.112;2023-08-01T13:07:06;23.00;99.90
49829;DHT22;35723;51.194;5.112;2023-08-01T13:09:31;23.00;99.90
49829;DHT22;35723;51.194;5.112;2023-08-01T13:11:57;23.10;99.90
49829;DHT22;35723;51.194;5.112;2023-08-01T13:14:26;23.10;99.90
49829;DHT22;35723;51.194;5.112;2023-08-01T13:16:51;23.10;99.90
49829;DHT22;35723;51.194;5.112;2023-08-01T13:19:18;22.90;99.90
49829;DHT22;35723;51.194;5.112;2023-08-01T13:21:44;22.90;99.90
49829;DHT22;35723;51.194;5.112;2023-08-01T13:24:10;22.90;99.90
49829;DHT22;35723;51.194;5.112;2023-08-01T13:26:35;22.80;99.90
49829;DHT22;35723;51.194;5.112;2023-08-01T13:29:01;22.80;99.90
49829;DHT22;35723;51.194;5.112;2023-08-01T13:31:27;22.80;99.90
49829;DHT22;35723;51.194;5.112;2023-08-01T13:33:54;22.80;99.90
49829;DHT22;35723;51.194;5.112;2023-08-01T13:36:20;22.90;99.90
49829;DHT22;35723;51.194;5.112;2023-08-01T13:38:46;22.90;99.90
49829;DHT22;35723;51.194;5.112;2023-08-01T13:41:13;23.00;99.90
49829;DHT22;35723;51.194;5.112;2023-08-01T13:43:39;22.90;99.90
49829;DHT22;35723;51.194;5.112;2023-08-01T13:46:13;22.90;99.90
49829;DHT22;35723;51.194;5.112;2023-08-01T13:48:41;22.90;99.90
49829;DHT22;35723;51.194;5.112;2023-08-01T13:51:06;22.90;99.90
49829;DHT22;35723;51.194;5.112;2023-08-01T13:53:32;22.90;99.90
49829;DHT22;35723;51.194;5.112;2023-08-01T13:55:59;22.90;99.90
49829;DHT22;35723;51.194;5.112;2023-08-01T13:58:24;22.80;99.90
49829;DHT22;35723;51.194;5.112;2023-08-01T14:00:50;22.80;99.90
49829;DHT22;35723;51.194;5.112;2023-08-01T14:03:16;22.80;99.90
49829;DHT22;35723;51.194;5.112;2023-08-01T14:05:41;22.80;99.90
49829;DHT22;35723;51.194;5.112;2023-08-01T14:08:07;22.80;99.90
49829;DHT22;35723;51.194;5.112;2023-08-01T14:10:33;22.80;99.90
49829;DHT22;35723;51.194;5.112;2023-08-01T14:12:58;22.80;99.90
49829;DHT22;35723;51.194;5.112;2023-08-01T14:15:24;22.90;99.90
49829;DHT22;35723;51.194;5.112;2023-08-01T14:17:50;22.90;99.90
49829;DHT22;35723;51.194;5.112;2023-08-01T14:20:15;22.90;99.90
49829;DHT22;35723;51.194;5.112;2023-08-01T14:22:42;22.90;99.90
49829;DHT22;35723;51.194;5.112;2023-08-01T14:25:10;23.00;99.90
49829;DHT22;35723;51.194;5.112;2023-08-01T14:27:36;22.90;99.90
49829;DHT22;35723;51.194;5.112;2023-08-01T14:30:02;22.90;99.90
49829;DHT22;35723;51.194;5.112;2023-08-01T14:32:28;22.90;99.90
49829;DHT22;35723;51.194;5.112;2023-08-01T14:34:54;22.90;99.90
49829;DHT22;35723;51.194;5.112;2023-08-01T14:37:19;22.90;99.90
49829;DHT22;35723;51.194;5.112;2023-08-01T14:39:49;22.80;99.90
49829;DHT22;35723;51.194;5.112;2023-08-01T14:42:16;22.80;99.90
49829;DHT22;35723;51.194;5.112;2023-08-01T14:44:41;22.80;99.90
49829;DHT22;35723;51.194;5.112;2023-08-01T14:47:07;22.90;99.90
49829;DHT22;35723;51.194;5.112;2023-08-01T14:49:32;22.90;99.90
49829;DHT22;35723;51.194;5.112;2023-08-01T14:51:58;22.90;99.90
49829;DHT22;35723;51.194;5.112;2023-08-01T14:54:24;23.00;99.90
49829;DHT22;35723;51.194;5.112;2023-08-01T14:56:53;23.00;99.90
49829;DHT22;35723;51.194;5.112;2023-08-01T14:59:18;23.10;99.90
49829;DHT22;35723;51.194;5.112;2023-08-01T15:01:44;23.10;99.90
49829;DHT22;35723;51.194;5.112;2023-08-01T15:04:10;23.10;99.90
49829;DHT22;35723;51.194;5.112;2023-08-01T15:06:35;23.10;99.90
49829;DHT22;35723;51.194;5.112;2023-08-01T15:09:01;23.10;99.90
49829;DHT22;35723;51.194;5.112;2023-08-01T15:11:26;23.00;99.90
49829;DHT22;35723;51.194;5.112;2023-08-01T15:13:52;23.00;99.90
49829;DHT22;35723;51.194;5.112;2023-08-01T15:16:18;23.00;99.90
49829;DHT22;35723;51.194;5.112;2023-08-01T15:18:44;22.90;99.90
49829;DHT22;35723;51.194;5.112;2023-08-01T15:21:10;22.80;99.90
49829;DHT22;35723;51.194;5.112;2023-08-01T15:23:35;22.80;99.90
49829;DHT22;35723;51.194;5.112;2023-08-01T15:26:01;22.80;99.90